Time;durP1;ratioP1;P1;durP2;ratioP2;P2;SDS_P1;SDS_P2;PMS_P1;PMS_P2;Temp;Humidity;BMP_temperature;BMP_pressure;BME280_temperature;BME280_humidity;BME280_pressure;Samples;Min_cycle;Max_cycle;Signal;HPM_P1;HPM_P2
2022/04/06 00:00:55;;;;;;;6.32;3.78;;;;;;;7.47;100.00;98387.84;5087484;28;20056;-84
2022/04/06 00:03:23;;;;;;;4.57;3.40;;;;;;;7.42;100.00;98372.19;5082221;28;20146;-85
2022/04/06 00:05:49;;;;;;;4.25;3.20;;;;;;;7.48;100.00;98377.88;5072780;28;20055;-84
2022/04/06 00:08:16;;;;;;;4.25;3.50;;;;;;;7.48;100.00;98375.16;5076163;28;20052;-84
2022/04/06 00:10:42;;;;;;;3.83;2.92;;;;;;;7.59;100.00;98382.84;5088779;28;20052;-84
2022/04/06 00:13:09;;;;;;;6.07;3.42;;;;;;;7.53;100.00;98370.06;5083994;28;20045;-84
2022/04/06 00:15:36;;;;;;;4.93;3.33;;;;;;;7.56;100.00;98370.50;5085549;28;20040;-84
2022/04/06 00:18:03;;;;;;;4.22;3.58;;;;;;;7.57;100.00;98369.50;5091299;28;20499;-85
2022/04/06 00:20:31;;;;;;;8.95;3.38;;;;;;;7.61;100.00;98378.91;5092593;28;20103;-84
2022/04/06 00:22:57;;;;;;;3.85;3.30;;;;;;;7.53;100.00;98359.22;5079881;28;20055;-84
2022/04/06 00:25:24;;;;;;;4.20;3.40;;;;;;;7.61;100.00;98365.38;5072150;28;20143;-84
2022/04/06 00:27:51;;;;;;;4.53;3.67;;;;;;;7.53;100.00;98351.94;5080892;28;20044;-84
2022/04/06 00:30:18;;;;;;;4.82;3.50;;;;;;;7.60;100.00;98362.84;5092348;28;20130;-84
2022/04/06 00:32:44;;;;;;;6.97;3.88;;;;;;;7.68;100.00;98359.22;5088456;28;20052;-84
2022/04/06 00:35:29;;;;;;;4.90;3.83;;;;;;;7.55;100.00;98346.34;5091397;28;20143;-84
2022/04/06 00:37:57;;;;;;;4.55;3.40;;;;;;;7.62;100.00;98356.25;5080326;28;20484;-84
2022/04/06 00:40:24;;;;;;;8.10;3.97;;;;;;;7.62;100.00;98366.22;5072384;28;20052;-84
2022/04/06 00:42:53;;;;;;;4.38;3.40;;;;;;;7.59;100.00;98359.31;5083256;28;20058;-84
2022/04/06 00:45:19;;;;;;;5.07;3.25;;;;;;;7.59;100.00;98359.31;5080858;28;20043;-84
2022/04/06 00:47:47;;;;;;;5.07;3.40;;;;;;;7.60;100.00;98352.91;5089118;28;20133;-84
2022/04/06 00:50:14;;;;;;;3.92;3.13;;;;;;;7.57;100.00;98347.00;5089670;28;20075;-84
2022/04/06 00:52:41;;;;;;;6.93;3.92;;;;;;;7.56;100.00;98342.63;5084021;28;20410;-84
2022/04/06 00:55:12;;;;;;;7.47;4.30;;;;;;;7.51;100.00;98351.31;5091176;28;20097;-84
2022/04/06 00:57:39;;;;;;;4.13;3.10;;;;;;;7.44;100.00;98334.97;5084942;28;20052;-83
2022/04/06 01:00:08;;;;;;;6.22;3.60;;;;;;;7.33;100.00;98326.47;5076932;28;20148;-84
2022/04/06 01:02:35;;;;;;;4.57;3.72;;;;;;;7.32;100.00;98335.63;5088765;28;20056;-84
2022/04/06 01:05:02;;;;;;;7.00;4.05;;;;;;;7.24;100.00;98333.81;5083729;28;20044;-84
2022/04/06 01:07:30;;;;;;;4.60;3.47;;;;;;;7.29;100.00;98335.94;5072163;28;20049;-84
2022/04/06 01:09:57;;;;;;;5.00;3.63;;;;;;;7.27;100.00;98333.44;5088475;28;20058;-84
2022/04/06 01:12:26;;;;;;;5.78;4.50;;;;;;;7.21;100.00;98326.94;5076804;28;20050;-84
2022/04/06 01:14:54;;;;;;;8.70;4.10;;;;;;;7.31;100.00;98333.94;5078200;28;20148;-83
2022/04/06 01:17:21;;;;;;;5.47;3.90;;;;;;;7.31;100.00;98339.34;5073831;28;20066;-84
2022/04/06 01:19:48;;;;;;;7.72;4.30;;;;;;;7.37;100.00;98338.59;5072678;28;20064;-84
2022/04/06 01:22:18;;;;;;;6.55;4.35;;;;;;;7.43;100.00;98333.28;5083352;28;20052;-84
2022/04/06 01:24:46;;;;;;;4.18;3.72;;;;;;;7.43;100.00;98329.75;5080671;28;20055;-84
2022/04/06 01:27:13;;;;;;;6.30;4.65;;;;;;;7.36;100.00;98329.66;5090710;28;20071;-85
2022/04/06 01:29:41;;;;;;;6.03;4.10;;;;;;;7.36;100.00;98317.97;5091564;28;20051;-84
2022/04/06 01:32:09;;;;;;;5.18;3.63;;;;;;;7.39;100.00;98309.50;5090299;28;20048;-84
2022/04/06 01:34:37;;;;;;;4.75;3.67;;;;;;;7.42;100.00;98322.63;5075279;28;20095;-85
2022/04/06 01:37:04;;;;;;;4.72;4.20;;;;;;;7.35;100.00;98333.38;5078634;28;20040;-85
2022/04/06 01:39:32;;;;;;;6.80;4.22;;;;;;;7.24;100.00;98310.34;5090756;28;20447;-85
2022/04/06 01:41:59;;;;;;;6.53;4.35;;;;;;;7.42;100.00;98320.78;5089179;28;20475;-84
2022/04/06 01:44:27;;;;;;;9.15;4.10;;;;;;;7.32;100.00;98322.94;5091169;28;20051;-84
2022/04/06 01:46:54;;;;;;;6.35;4.22;;;;;;;7.31;100.00;98315.00;5085193;28;20127;-84
2022/04/06 01:52:16;;;;;;;8.68;4.78;;;;;;;7.28;100.00;98321.59;4991461;28;20345;-85
2022/04/06 01:54:47;;;;;;;7.53;4.93;;;;;;;7.19;100.00;98296.50;5052944;28;20048;-85
2022/04/06 01:57:14;;;;;;;9.15;5.15;;;;;;;7.24;100.00;98314.88;5086038;28;20044;-84
2022/04/06 01:59:41;;;;;;;7.63;5.15;;;;;;;7.27;100.00;98309.09;5090797;28;20044;-84
2022/04/06 02:02:09;;;;;;;7.07;4.72;;;;;;;7.25;100.00;98316.56;5070994;28;20083;-85
2022/04/06 02:04:38;;;;;;;5.95;4.70;;;;;;;7.28;100.00;98299.97;5071261;28;20135;-84
2022/04/06 02:07:04;;;;;;;8.25;4.78;;;;;;;7.41;100.00;98297.47;5082102;28;20055;-85
2022/04/06 02:09:31;;;;;;;6.47;4.32;;;;;;;7.42;100.00;98307.28;5079753;28;20052;-84
2022/04/06 02:12:00;;;;;;;8.15;4.88;;;;;;;7.44;100.00;98309.78;5091292;28;20059;-84
2022/04/06 02:14:27;;;;;;;11.05;5.15;;;;;;;7.42;100.00;98296.47;5083889;28;20050;-85
2022/04/06 02:16:54;;;;;;;7.22;4.90;;;;;;;7.39;100.00;98302.25;5087121;28;20048;-85
2022/04/06 02:19:21;;;;;;;5.13;4.35;;;;;;;7.35;100.00;98295.50;5075217;28;20127;-85
2022/04/06 02:21:47;;;;;;;7.30;4.30;;;;;;;7.40;100.00;98297.66;5074780;28;20052;-84
2022/04/06 02:24:14;;;;;;;6.93;4.45;;;;;;;7.34;100.00;98288.41;5074043;28;20150;-84
2022/04/06 02:26:41;;;;;;;9.63;5.40;;;;;;;7.34;100.00;98295.69;5088875;28;20102;-84
2022/04/06 02:29:09;;;;;;;5.88;4.18;;;;;;;7.26;100.00;98281.25;5074839;28;20050;-84
2022/04/06 02:31:35;;;;;;;7.85;4.35;;;;;;;7.30;100.00;98297.94;5081604;28;20048;-84
2022/04/06 02:34:02;;;;;;;6.05;4.10;;;;;;;7.27;100.00;98284.78;5088017;28;20048;-84
2022/04/06 02:36:29;;;;;;;6.72;4.20;;;;;;;7.32;100.00;98289.66;5076360;28;20063;-84
2022/04/06 02:38:55;;;;;;;6.45;4.32;;;;;;;7.38;100.00;98286.19;5074219;28;20072;-85
2022/04/06 02:41:22;;;;;;;5.00;4.03;;;;;;;7.37;100.00;98261.00;5074111;28;20515;-84
2022/04/06 02:43:49;;;;;;;6.18;4.43;;;;;;;7.47;100.00;98274.25;5077625;28;20044;-85
2022/04/06 02:46:17;;;;;;;5.97;4.32;;;;;;;7.34;100.00;98272.19;5093305;28;20113;-85
2022/04/06 02:48:45;;;;;;;6.95;4.40;;;;;;;7.35;100.00;98267.66;5081263;28;20449;-84
2022/04/06 02:51:11;;;;;;;5.18;3.97;;;;;;;7.28;100.00;98264.84;5085403;28;20499;-85
2022/04/06 02:53:38;;;;;;;9.05;4.45;;;;;;;7.44;100.00;98280.88;5073563;28;20055;-85
2022/04/06 02:56:05;;;;;;;7.55;4.32;;;;;;;7.44;100.00;98263.81;5074236;28;20047;-85
2022/04/06 02:58:32;;;;;;;4.07;3.33;;;;;;;7.48;100.00;98267.81;5089559;28;20054;-85
2022/04/06 03:00:59;;;;;;;5.45;4.55;;;;;;;7.51;100.00;98262.06;5074670;28;20403;-84
2022/04/06 03:03:27;;;;;;;5.43;4.22;;;;;;;7.46;100.00;98258.22;5079309;28;20090;-85
2022/04/06 03:05:54;;;;;;;6.72;4.43;;;;;;;7.60;100.00;98265.47;5091266;28;20401;-85
2022/04/06 03:08:20;;;;;;;9.13;4.57;;;;;;;7.50;100.00;98252.25;5090113;28;20049;-85
2022/04/06 03:10:47;;;;;;;5.20;3.63;;;;;;;7.54;100.00;98263.53;5073872;28;20054;-84
2022/04/06 03:13:14;;;;;;;5.40;3.95;;;;;;;7.54;100.00;98253.56;5072979;28;20047;-84
2022/04/06 03:15:40;;;;;;;6.13;4.40;;;;;;;7.57;100.00;98258.59;5073190;28;20067;-84
2022/04/06 03:18:12;;;;;;;6.18;4.50;;;;;;;7.57;100.00;98249.63;5074577;28;20116;-85
2022/04/06 03:20:40;;;;;;;5.97;4.15;;;;;;;7.53;100.00;98246.47;5073589;28;20136;-84
2022/04/06 03:23:07;;;;;;;5.82;4.25;;;;;;;7.71;100.00;98239.84;5083742;28;20047;-85
2022/04/06 03:25:34;;;;;;;6.95;4.45;;;;;;;7.64;100.00;98250.56;5093615;28;20410;-85
2022/04/06 03:28:01;;;;;;;7.20;4.57;;;;;;;7.64;100.00;98244.31;5092473;28;20097;-84
2022/04/06 03:30:27;;;;;;;7.13;4.70;;;;;;;7.54;100.00;98231.06;5093664;28;20056;-84
2022/04/06 03:32:54;;;;;;;12.57;4.57;;;;;;;7.60;100.00;98230.31;5078494;28;20049;-84
2022/04/06 03:35:20;;;;;;;8.15;4.88;;;;;;;7.57;100.00;98233.38;5073497;28;20049;-84
2022/04/06 03:37:48;;;;;;;10.18;5.25;;;;;;;7.57;100.00;98234.25;5080931;28;20040;-84
2022/04/06 03:40:15;;;;;;;7.65;4.65;;;;;;;7.62;100.00;98231.81;5093169;28;20074;-84
2022/04/06 03:42:42;;;;;;;8.23;4.75;;;;;;;7.50;100.00;98214.38;5072498;28;20055;-85
2022/04/06 03:45:09;;;;;;;6.20;4.90;;;;;;;7.53;100.00;98226.69;5074192;28;20052;-84
2022/04/06 03:47:37;;;;;;;15.00;5.32;;;;;;;7.63;100.00;98232.63;5081415;28;20480;-84
2022/04/06 03:50:05;;;;;;;7.78;4.50;;;;;;;7.55;100.00;98216.53;5092513;28;20514;-85
2022/04/06 03:52:32;;;;;;;7.97;4.60;;;;;;;7.65;100.00;98238.72;5083403;28;20059;-84
2022/04/06 03:55:00;;;;;;;9.52;4.43;;;;;;;7.60;100.00;98228.47;5074970;28;20049;-85
2022/04/06 03:57:27;;;;;;;8.70;4.82;;;;;;;7.69;100.00;98223.75;5091781;28;20040;-85
2022/04/06 03:59:53;;;;;;;8.98;4.40;;;;;;;7.71;100.00;98223.59;5092409;28;20471;-84
2022/04/06 04:02:20;;;;;;;7.53;4.35;;;;;;;7.59;100.00;98213.25;5092246;28;20135;-84
2022/04/06 04:04:47;;;;;;;6.72;4.80;;;;;;;7.67;100.00;98217.72;5091284;28;20048;-84
2022/04/06 04:07:20;;;;;;;8.43;4.75;;;;;;;7.61;100.00;98222.00;5084889;28;20484;-84
2022/04/06 04:09:47;;;;;;;7.32;4.47;;;;;;;7.60;100.00;98219.50;5083199;28;20418;-85
2022/04/06 04:12:16;;;;;;;6.15;4.40;;;;;;;7.64;100.00;98225.38;5090971;28;20040;-85
2022/04/06 04:14:43;;;;;;;6.40;4.78;;;;;;;7.68;100.00;98223.94;5088485;28;20059;-79
2022/04/06 04:17:10;;;;;;;7.95;4.53;;;;;;;7.65;100.00;98216.22;5072767;28;20052;-85
2022/04/06 04:19:37;;;;;;;7.90;4.55;;;;;;;7.53;100.00;98205.91;5073729;28;20396;-85
2022/04/06 04:22:04;;;;;;;8.10;5.18;;;;;;;7.60;100.00;98225.75;5073977;28;20060;-85
2022/04/06 04:24:30;;;;;;;6.45;4.55;;;;;;;7.66;100.00;98226.84;5072588;28;20036;-85
2022/04/06 04:26:57;;;;;;;8.23;4.40;;;;;;;7.68;100.00;98219.41;5072946;28;20075;-85
2022/04/06 04:29:25;;;;;;;5.50;4.10;;;;;;;7.71;100.00;98215.47;5083250;28;20046;-85
2022/04/06 04:31:52;;;;;;;5.90;4.00;;;;;;;7.69;100.00;98218.34;5091649;28;20058;-85
2022/04/06 04:34:18;;;;;;;4.55;3.83;;;;;;;7.69;100.00;98209.41;5082251;28;20051;-85
2022/04/06 04:36:45;;;;;;;8.18;4.40;;;;;;;7.66;100.00;98207.91;5073490;28;20055;-84
2022/04/06 04:39:12;;;;;;;6.70;4.10;;;;;;;7.72;100.00;98215.28;5072085;28;20049;-85
2022/04/06 04:41:39;;;;;;;8.82;3.63;;;;;;;7.77;100.00;98220.97;5073002;28;20052;-84
2022/04/06 04:44:05;;;;;;;5.85;3.80;;;;;;;7.73;100.00;98208.00;5076071;28;20052;-85
2022/04/06 04:46:33;;;;;;;7.25;3.78;;;;;;;7.66;100.00;98190.84;5089150;28;20127;-85
2022/04/06 04:49:00;;;;;;;6.10;3.72;;;;;;;7.74;100.00;98201.56;5088789;28;20052;-84
2022/04/06 04:51:28;;;;;;;8.50;3.88;;;;;;;7.74;100.00;98201.56;5073020;28;20059;-85
2022/04/06 04:53:57;;;;;;;9.88;3.92;;;;;;;7.67;100.00;98185.25;5071621;28;20503;-84
2022/04/06 04:56:24;;;;;;;6.85;3.55;;;;;;;7.76;100.00;98205.75;5072188;28;20487;-85
2022/04/06 04:58:53;;;;;;;5.40;3.85;;;;;;;7.67;100.00;98201.47;5073990;28;20052;-85
2022/04/06 05:01:20;;;;;;;7.22;3.97;;;;;;;7.72;100.00;98215.28;5077785;28;20044;-85
2022/04/06 05:03:48;;;;;;;4.38;3.67;;;;;;;7.80;100.00;98212.47;5079820;28;20132;-85
2022/04/06 05:06:18;;;;;;;5.35;3.70;;;;;;;7.72;100.00;98198.19;5090700;28;20056;-87
2022/04/06 05:08:45;;;;;;;4.07;3.20;;;;;;;7.77;100.00;98212.84;5071949;28;20044;-85
2022/04/06 05:11:12;;;;;;;9.05;4.05;;;;;;;7.77;100.00;98207.44;5091453;28;20043;-84
2022/04/06 05:13:39;;;;;;;4.78;3.25;;;;;;;7.75;100.00;98201.38;5078059;28;20107;-83
2022/04/06 05:16:06;;;;;;;4.57;3.45;;;;;;;7.72;100.00;98190.94;5088466;28;20074;-84
2022/04/06 05:18:32;;;;;;;4.93;3.65;;;;;;;7.77;100.00;98202.03;5091579;28;20044;-84
2022/04/06 05:21:01;;;;;;;5.28;3.55;;;;;;;7.82;100.00;98206.03;5074052;28;20490;-84
2022/04/06 05:23:28;;;;;;;5.93;3.92;;;;;;;7.89;100.00;98209.63;5075958;28;20048;-84
2022/04/06 05:25:54;;;;;;;6.40;3.55;;;;;;;7.85;100.00;98202.94;5076621;28;20059;-84
2022/04/06 05:28:21;;;;;;;6.25;3.75;;;;;;;7.77;100.00;98193.06;5091492;28;20078;-84
2022/04/06 05:30:48;;;;;;;5.28;3.22;;;;;;;7.77;100.00;98191.19;5091331;28;20439;-84
2022/04/06 05:33:15;;;;;;;10.00;3.60;;;;;;;7.78;100.00;98190.19;5088889;28;20043;-84
2022/04/06 05:35:41;;;;;;;6.50;3.50;;;;;;;7.87;100.00;98198.16;5071181;28;20140;-85
2022/04/06 05:38:10;;;;;;;5.85;3.20;;;;;;;7.80;100.00;98188.09;5089659;28;20130;-85
2022/04/06 05:40:36;;;;;;;7.35;4.05;;;;;;;7.89;100.00;98198.81;5076544;28;20048;-85
2022/04/06 05:43:04;;;;;;;4.05;3.28;;;;;;;8.01;100.00;98200.00;5072647;28;20079;-85
2022/04/06 05:45:31;;;;;;;6.55;3.40;;;;;;;7.95;100.00;98206.19;5084353;28;20046;-85
2022/04/06 05:47:59;;;;;;;6.30;3.22;;;;;;;7.94;100.00;98204.50;5085407;28;20064;-85
2022/04/06 05:50:26;;;;;;;7.88;3.70;;;;;;;7.95;100.00;98192.66;5086486;28;20064;-81
2022/04/06 05:55:47;;;;;;;5.75;3.15;;;;;;;8.10;100.00;98204.25;5063583;28;20052;-85
2022/04/06 05:58:15;;;;;;;8.25;4.15;;;;;;;8.16;100.00;98199.94;5089431;28;20059;-85
2022/04/06 06:00:42;;;;;;;5.43;3.58;;;;;;;8.28;100.00;98201.09;5095999;28;20053;-84
2022/04/06 06:03:09;;;;;;;10.50;4.55;;;;;;;8.33;100.00;98214.88;5083455;28;20040;-85
2022/04/06 06:05:36;;;;;;;4.32;2.97;;;;;;;8.31;100.00;98203.41;5094311;28;20079;-84
2022/04/06 06:08:03;;;;;;;4.10;2.85;;;;;;;8.31;100.00;98208.84;5070911;28;20504;-85
2022/04/06 06:10:29;;;;;;;4.95;3.58;;;;;;;8.38;100.00;98213.47;5071925;28;20124;-84
2022/04/06 06:12:58;;;;;;;3.28;2.75;;;;;;;8.36;100.00;98210.13;5090461;28;20530;-84
2022/04/06 06:15:25;;;;;;;5.82;3.30;;;;;;;8.41;100.00;98204.94;5091271;28;20536;-84
2022/04/06 06:17:52;;;;;;;3.45;2.85;;;;;;;8.43;100.00;98202.88;5091969;28;20044;-84
2022/04/06 06:20:19;;;;;;;4.35;3.00;;;;;;;8.41;100.00;98191.41;5086255;28;20484;-84
2022/04/06 06:22:46;;;;;;;4.47;3.03;;;;;;;8.48;100.00;98203.19;5090081;28;20055;-84
2022/04/06 06:25:13;;;;;;;6.20;2.80;;;;;;;8.47;100.00;98199.63;5079687;28;20105;-85
2022/04/06 06:27:40;;;;;;;4.93;3.22;;;;;;;8.53;100.00;98191.75;5070512;28;20059;-84
2022/04/06 06:30:11;;;;;;;5.80;2.92;;;;;;;8.64;100.00;98202.03;5071508;28;20045;-84
2022/04/06 06:32:37;;;;;;;4.95;3.03;;;;;;;8.63;100.00;98201.22;5070318;28;20059;-84
2022/04/06 06:35:05;;;;;;;6.35;3.53;;;;;;;8.70;100.00;98212.09;5090328;28;20142;-85
2022/04/06 06:37:32;;;;;;;6.22;3.20;;;;;;;8.76;100.00;98211.34;5089393;28;20044;-85
2022/04/06 06:39:59;;;;;;;4.35;3.22;;;;;;;8.84;100.00;98194.09;5082505;28;20403;-85
2022/04/06 06:42:25;;;;;;;5.55;2.92;;;;;;;8.89;100.00;98202.44;5085200;28;20476;-85
2022/04/06 06:44:52;;;;;;;4.63;3.40;;;;;;;8.89;100.00;98191.63;5076833;28;20044;-85
2022/04/06 06:47:21;;;;;;;9.32;2.90;;;;;;;8.90;100.00;98182.44;5080986;28;20048;-84
2022/04/06 06:49:48;;;;;;;3.40;2.73;;;;;;;9.03;100.00;98197.94;5089438;28;20047;-85
2022/04/06 06:52:15;;;;;;;3.80;2.90;;;;;;;9.06;100.00;98191.31;5090101;28;20301;-85
2022/04/06 06:54:42;;;;;;;8.38;2.78;;;;;;;9.14;100.00;98200.13;5090714;28;20058;-84
2022/04/06 06:57:10;;;;;;;3.03;2.72;;;;;;;9.18;100.00;98195.13;5089475;28;20044;-85
2022/04/06 06:59:37;;;;;;;3.65;2.45;;;;;;;9.20;100.00;98195.78;5077669;28;20101;-85
2022/04/06 07:02:04;;;;;;;6.07;2.75;;;;;;;9.22;100.00;98188.28;5075024;28;20048;-84
2022/04/06 07:04:32;;;;;;;3.55;2.35;;;;;;;9.23;100.00;98198.09;5093169;28;20486;-84
2022/04/06 07:06:59;;;;;;;4.70;2.20;;;;;;;9.26;100.00;98185.97;5096037;28;20598;-84
2022/04/06 07:09:26;;;;;;;3.95;2.33;;;;;;;9.32;100.00;98196.88;5092681;28;20059;-85
2022/04/06 07:11:53;;;;;;;3.03;2.05;;;;;;;9.29;100.00;98181.03;5089036;28;20049;-85
2022/04/06 07:14:20;;;;;;;2.05;1.63;;;;;;;9.31;100.00;98191.66;5073382;28;20052;-85
2022/04/06 07:16:47;;;;;;;3.22;1.88;;;;;;;9.17;100.00;98177.19;5073807;28;20406;-85
2022/04/06 07:19:13;;;;;;;2.55;1.67;;;;;;;9.29;100.00;98189.16;5073984;28;20040;-84
2022/04/06 07:21:41;;;;;;;2.38;1.63;;;;;;;9.23;100.00;98186.38;5089959;28;20039;-84
2022/04/06 07:24:08;;;;;;;4.68;1.85;;;;;;;9.30;100.00;98192.69;5073297;28;20052;-85
2022/04/06 07:26:35;;;;;;;3.42;1.60;;;;;;;9.35;100.00;98182.09;5073627;28;20048;-85
2022/04/06 07:29:01;;;;;;;3.15;1.90;;;;;;;9.34;100.00;98183.13;5073568;28;20048;-85
2022/04/06 07:31:28;;;;;;;2.55;1.80;;;;;;;9.39;100.00;98186.06;5073999;28;20058;-85
2022/04/06 07:33:55;;;;;;;5.00;2.00;;;;;;;9.48;100.00;98184.84;5072975;28;20048;-85
2022/04/06 07:36:22;;;;;;;6.13;1.92;;;;;;;9.44;100.00;98193.59;5073601;28;20049;-85
2022/04/06 07:38:50;;;;;;;3.10;1.73;;;;;;;9.48;100.00;98176.69;5086361;28;20052;-85
2022/04/06 07:41:17;;;;;;;6.03;2.25;;;;;;;9.60;100.00;98174.25;5092270;28;20048;-85
2022/04/06 07:43:45;;;;;;;3.75;2.10;;;;;;;9.57;100.00;98185.50;5072783;28;20056;-85
2022/04/06 07:46:12;;;;;;;3.30;1.90;;;;;;;9.57;100.00;98177.38;5073459;28;20048;-85
2022/04/06 07:48:41;;;;;;;4.35;1.98;;;;;;;9.56;100.00;98181.16;5073109;28;20106;-85
2022/04/06 07:51:07;;;;;;;2.78;1.67;;;;;;;9.55;100.00;98177.56;5071451;28;20048;-85
2022/04/06 07:53:34;;;;;;;2.08;1.58;;;;;;;9.64;100.00;98180.97;5073423;28;20055;-84
2022/04/06 07:56:02;;;;;;;2.80;1.95;;;;;;;9.60;100.00;98176.97;5091722;28;20472;-84
2022/04/06 07:58:29;;;;;;;3.63;1.65;;;;;;;9.69;100.00;98177.63;5093177;28;20054;-84
2022/04/06 08:00:56;;;;;;;2.53;1.60;;;;;;;9.76;100.00;98178.50;5093448;28;20063;-85
2022/04/06 08:03:22;;;;;;;4.07;1.83;;;;;;;9.70;100.00;98172.00;5092759;28;20043;-84
2022/04/06 08:05:50;;;;;;;2.50;1.52;;;;;;;9.77;100.00;98174.75;5093312;28;20467;-84
2022/04/06 08:08:17;;;;;;;2.10;1.35;;;;;;;9.76;100.00;98175.78;5087656;28;20060;-84
2022/04/06 08:10:43;;;;;;;8.32;1.83;;;;;;;9.76;100.00;98177.66;5073281;28;20143;-84
2022/04/06 08:13:11;;;;;;;1.90;1.42;;;;;;;9.82;100.00;98172.25;5080351;28;20402;-84
2022/04/06 08:15:38;;;;;;;7.10;1.90;;;;;;;9.70;100.00;98168.47;5092428;28;20592;-84
2022/04/06 08:18:06;;;;;;;4.68;1.90;;;;;;;9.74;100.00;98178.69;5092872;28;20545;-84
2022/04/06 08:20:33;;;;;;;3.47;1.70;;;;;;;9.77;100.00;98180.19;5093321;28;20056;-85
2022/04/06 08:22:59;;;;;;;3.05;1.50;;;;;;;9.76;100.00;98178.50;5085850;28;20407;-85
2022/04/06 08:25:27;;;;;;;2.28;1.60;;;;;;;9.80;100.00;98174.34;5072564;28;20117;-84
2022/04/06 08:27:53;;;;;;;2.60;1.73;;;;;;;9.90;100.00;98179.38;5072402;28;20048;-85
2022/04/06 08:30:22;;;;;;;4.47;1.70;;;;;;;9.90;100.00;98176.66;5071936;28;20056;-85
2022/04/06 08:32:49;;;;;;;1.88;1.45;;;;;;;9.95;100.00;98163.31;5089290;28;20044;-86
2022/04/06 08:35:17;;;;;;;2.78;1.45;;;;;;;10.02;100.00;98168.75;5092562;28;20490;-84
2022/04/06 08:37:44;;;;;;;2.05;1.20;;;;;;;10.16;100.00;98162.31;5092651;28;20067;-85
2022/04/06 08:40:12;;;;;;;2.90;1.73;;;;;;;10.40;100.00;98170.91;5092712;28;20134;-86
2022/04/06 08:42:39;;;;;;;2.45;1.70;;;;;;;10.47;100.00;98147.31;5092215;28;20056;-85
2022/04/06 08:45:08;;;;;;;2.40;1.30;;;;;;;10.59;100.00;98161.09;5092347;28;20054;-85
2022/04/06 08:47:37;;;;;;;3.97;1.17;;;;;;;10.63;100.00;98157.75;5091398;28;20495;-86
2022/04/06 08:50:06;;;;;;;1.95;1.40;;;;;;;10.69;100.00;98166.09;5088758;28;20484;-86
2022/04/06 08:52:33;;;;;;;1.58;1.20;;;;;;;10.66;100.00;98156.50;5086281;28;20062;-86
2022/04/06 08:55:00;;;;;;;1.33;1.20;;;;;;;10.55;99.92;98152.53;5092402;28;20509;-86
2022/04/06 08:57:33;;;;;;;1.55;1.13;;;;;;;10.57;100.00;98161.31;5071986;28;20159;-86
2022/04/06 09:00:00;;;;;;;1.70;1.33;;;;;;;10.57;100.00;98158.59;5072312;28;20056;-86
2022/04/06 09:02:27;;;;;;;2.60;1.40;;;;;;;10.54;100.00;98148.16;5072025;27;20120;-87
2022/04/06 09:04:57;;;;;;;1.17;1.08;;;;;;;10.57;100.00;98136.03;5080822;28;20450;-87
2022/04/06 09:07:25;;;;;;;3.17;1.05;;;;;;;10.84;94.98;98165.88;5090812;28;20097;-86
2022/04/06 09:09:55;;;;;;;2.55;1.10;;;;;;;10.87;88.36;98166.31;5092066;28;20184;-87
2022/04/06 09:12:23;;;;;;;1.35;0.95;;;;;;;10.79;85.93;98145.63;5091762;28;20079;-87
2022/04/06 09:15:05;;;;;;;1.55;1.00;;;;;;;10.71;86.64;98132.22;5092754;28;20491;-87
2022/04/06 09:17:32;;;;;;;1.00;0.90;;;;;;;10.88;87.04;98135.34;5092207;28;20147;-87
2022/04/06 09:20:00;;;;;;;0.82;0.82;;;;;;;10.92;84.63;98147.47;5074787;28;20302;-87
2022/04/06 09:22:29;;;;;;;0.90;0.88;;;;;;;10.92;84.98;98139.31;5070999;28;20044;-87
2022/04/06 09:25:00;;;;;;;1.17;1.08;;;;;;;11.06;84.22;98155.59;5090804;28;20051;-87
2022/04/06 09:27:31;;;;;;;1.00;0.90;;;;;;;11.11;86.34;98166.66;5091333;28;20297;-86
2022/04/06 09:29:58;;;;;;;1.45;1.10;;;;;;;11.02;83.88;98160.63;5092275;28;20052;-87
2022/04/06 09:32:25;;;;;;;1.23;1.00;;;;;;;11.01;83.72;98155.41;5092457;28;20469;-88
2022/04/06 09:34:52;;;;;;;1.50;1.00;;;;;;;10.96;83.79;98151.44;5081876;28;20485;-88
2022/04/06 09:37:28;;;;;;;1.15;1.02;;;;;;;10.92;82.78;98139.31;5088527;28;20088;-87
2022/04/06 09:39:57;;;;;;;1.73;0.80;;;;;;;11.06;83.03;98129.22;5090372;28;20078;-87
2022/04/06 09:42:26;;;;;;;3.08;1.23;;;;;;;11.31;80.72;98129.38;5083358;28;20055;-87
2022/04/06 09:47:53;;;;;;;1.63;1.25;;;;;;;11.79;78.76;98119.09;5069662;28;20052;-88
2022/04/06 09:50:22;;;;;;;2.55;1.00;;;;;;;12.28;80.25;98131.16;5086060;28;20198;-88
2022/04/06 09:52:52;;;;;;;1.48;1.05;;;;;;;12.15;78.28;98115.75;5091822;28;20054;-87
2022/04/06 09:55:20;;;;;;;1.13;0.90;;;;;;;12.21;78.35;98122.22;5091873;28;20047;-88
2022/04/06 09:57:51;;;;;;;2.55;0.75;;;;;;;12.26;76.94;98116.09;5090271;28;20051;-87
2022/04/06 10:00:20;;;;;;;1.92;1.00;;;;;;;12.64;81.38;98126.03;5091470;28;20086;-86
2022/04/06 10:02:49;;;;;;;2.63;0.80;;;;;;;12.74;77.38;98104.56;5091411;28;20406;-88
2022/04/06 10:05:20;;;;;;;0.77;0.60;;;;;;;12.43;75.32;98103.56;5091827;28;20060;-86
2022/04/06 10:07:51;;;;;;;0.98;0.75;;;;;;;12.49;76.11;98107.31;5092456;28;20070;-87
2022/04/06 10:10:23;;;;;;;0.63;0.57;;;;;;;12.81;75.78;98101.75;5090191;28;20048;-87
2022/04/06 10:12:50;;;;;;;0.88;0.73;;;;;;;12.93;73.50;98086.31;5082997;28;20499;-87
2022/04/06 10:15:18;;;;;;;0.60;0.50;;;;;;;12.97;75.15;98076.63;5084728;28;20166;-87
2022/04/06 10:17:45;;;;;;;0.30;0.30;;;;;;;12.89;72.68;98101.47;5092036;28;20590;-86
2022/04/06 10:20:23;;;;;;;0.40;0.40;;;;;;;12.80;74.22;98089.19;5091765;28;20048;-87
2022/04/06 10:23:01;;;;;;;0.40;0.40;;;;;;;12.81;71.76;98088.97;5090748;28;20162;-88
2022/04/06 10:25:39;;;;;;;0.43;0.43;;;;;;;12.45;74.15;98096.03;5091754;28;20135;-87
2022/04/06 10:28:11;;;;;;;1.52;0.60;;;;;;;12.30;73.85;98080.00;5093014;28;20105;-88
2022/04/06 10:30:38;;;;;;;0.25;0.25;;;;;;;12.29;75.43;98069.34;5092402;28;20074;-88
2022/04/06 10:33:19;;;;;;;0.65;0.38;;;;;;;12.52;73.57;98085.03;5079354;28;20212;-88
2022/04/06 10:35:48;;;;;;;1.73;0.32;;;;;;;12.79;76.27;98073.88;5072114;28;20399;-88
2022/04/06 10:38:18;;;;;;;0.73;0.50;;;;;;;13.00;71.51;98069.88;5081616;28;20398;-89
2022/04/06 10:41:00;;;;;;;0.60;0.60;;;;;;;12.86;70.18;98069.19;5095097;28;20075;-88
2022/04/06 10:43:50;;;;;;;0.65;0.40;;;;;;;12.81;73.29;98064.44;5095519;28;20044;-88
2022/04/06 10:46:32;;;;;;;0.30;0.30;;;;;;;12.89;73.42;98049.66;5076707;28;20060;-88
2022/04/06 10:49:12;;;;;;;0.90;0.40;;;;;;;13.19;73.77;98036.06;5076318;28;20059;-89
2022/04/06 10:51:41;;;;;;;0.60;0.60;;;;;;;13.30;69.64;98042.63;5078483;28;20064;-89
2022/04/06 10:54:42;;;;;;;0.47;0.43;;;;;;;13.29;68.03;98057.34;5096675;28;20130;-89
2022/04/06 10:57:11;;;;;;;0.50;0.50;;;;;;;13.18;67.35;98039.84;5081849;28;20389;-89
2022/04/06 10:59:38;;;;;;;0.47;0.43;;;;;;;13.28;66.65;98036.59;5096760;28;20529;-91
2022/04/06 11:02:19;;;;;;;0.98;0.65;;;;;;;13.39;67.73;98052.19;5096790;28;20052;-90
2022/04/06 11:10:30;;;;;;;0.63;0.43;;;;;;;13.91;67.39;98027.09;5086035;28;20055;-89
2022/04/06 11:13:00;;;;;;;0.38;0.38;;;;;;;13.84;65.33;98020.06;5087394;28;20048;-90
2022/04/06 11:15:41;;;;;;;1.35;0.60;;;;;;;13.88;65.63;97993.94;5097629;28;20052;-90
2022/04/06 11:18:41;;;;;;;1.00;0.50;;;;;;;13.89;66.51;97992.88;5097260;28;20040;-90
2022/04/06 11:21:08;;;;;;;;;;;;;;;13.99;67.03;98004.06;5096407;28;20055;-90
2022/04/06 11:23:37;;;;;;;1.13;0.50;;;;;;;13.80;66.28;97990.50;5095361;28;19920;-90
2022/04/06 11:26:04;;;;;;;0.60;0.55;;;;;;;13.72;66.94;97984.53;5095540;28;20059;-90
2022/04/06 11:28:32;;;;;;;0.73;0.68;;;;;;;13.45;67.25;97988.47;5095840;28;20052;-89
2022/04/06 11:31:03;;;;;;;2.10;0.60;;;;;;;13.62;67.50;97982.34;5095530;28;20051;-89
2022/04/06 11:33:39;;;;;;;0.65;0.40;;;;;;;14.01;65.06;97976.50;5095054;27;20048;-89
2022/04/06 11:36:13;;;;;;;0.30;0.30;;;;;;;14.46;64.82;97975.91;5074478;28;20484;-90
2022/04/06 11:38:40;;;;;;;1.95;0.45;;;;;;;14.75;62.44;97986.94;5074240;28;20044;-89
2022/04/06 11:41:07;;;;;;;1.60;0.57;;;;;;;14.74;61.19;97977.06;5086282;28;20406;-89
2022/04/06 11:43:54;;;;;;;0.60;0.38;;;;;;;14.61;63.08;97973.53;5095515;28;20052;-89
2022/04/06 11:46:21;;;;;;;1.80;0.60;;;;;;;14.48;63.27;97968.28;5095341;28;20060;-89
2022/04/06 11:48:47;;;;;;;0.38;0.38;;;;;;;14.47;61.53;97967.47;5089450;28;20151;-89
2022/04/06 11:51:20;;;;;;;0.50;0.50;;;;;;;14.29;60.10;97962.97;5074523;28;20091;-89
2022/04/06 11:53:47;;;;;;;2.30;0.70;;;;;;;14.40;59.68;97957.72;5074221;28;20502;-89